Poyen, Arkansas
Current Conditions -  °F | °C
As of 2:53 AM on Monday 22 Dec 2014 (Local Time) from KHOT Reporting Station
Overcast Overcast  
Wind Chill: 48°   Ceiling: 1200
Heat Index: 48°   Visibility: 10mi
Dew Point: 43°   Wind: 3mph
Humidity: 83%   Direction: 160°SSE
Pressure: 29.79"   Gusts: NA
Location:  34.32°N, 92.64°W
Report Text: KHOT 220853Z AUTO 16003KT 10SM BKN012 BKN019 OVC029 09/06 A2979 RMK AO2 SLP086 T00890061 56022
Loading
Personal Weather Stations






























Interactive Weather Map New forecast layout! Learn more

10-Day Weather Forecast

Advertisements
Track Severe Weather on mobile